Time;durP1;ratioP1;P1;durP2;ratioP2;P2;SDS_P1;SDS_P2;PMS_P1;PMS_P2;Temp;Humidity;BMP_temperature;BMP_pressure;BME280_temperature;BME280_humidity;BME280_pressure;Samples;Min_cycle;Max_cycle;Signal;HPM_P1;HPM_P2
2021/03/31 00:00:38;;;;;;;11.75;5.75;;;12.90;65.90;;;;;;5092671;28;20060;-53
2021/03/31 00:03:11;;;;;;;17.83;5.85;;;12.90;66.00;;;;;;5092159;28;20054;-53
2021/03/31 00:05:37;;;;;;;12.82;6.18;;;12.80;65.90;;;;;;5093821;28;20446;-53
2021/03/31 00:08:03;;;;;;;13.93;5.53;;;12.90;66.00;;;;;;5096006;28;20036;-53
2021/03/31 00:10:36;;;;;;;15.52;6.03;;;12.80;66.00;;;;;;5095941;28;20122;-53
2021/03/31 00:13:03;;;;;;;12.25;6.10;;;12.80;66.00;;;;;;5095623;28;20512;-53
2021/03/31 00:15:30;;;;;;;15.30;5.63;;;12.80;66.00;;;;;;5096289;28;20020;-53
2021/03/31 00:17:55;;;;;;;11.32;6.13;;;12.80;66.00;;;;;;5095889;28;20023;-53
2021/03/31 00:20:21;;;;;;;21.15;6.78;;;12.80;66.20;;;;;;5094738;28;20043;-52
2021/03/31 00:22:47;;;;;;;19.42;6.65;;;12.80;66.20;;;;;;5095628;28;20040;-53
2021/03/31 00:25:14;;;;;;;11.38;5.85;;;12.80;66.20;;;;;;5095439;28;20081;-53
2021/03/31 00:27:41;;;;;;;10.05;5.70;;;12.80;66.30;;;;;;5096038;28;20028;-53
2021/03/31 00:30:10;;;;;;;27.40;6.25;;;12.70;66.20;;;;;;5095759;28;20020;-53
2021/03/31 00:32:36;;;;;;;14.38;6.00;;;12.70;66.20;;;;;;5095452;28;20052;-53
2021/03/31 00:35:02;;;;;;;15.32;5.93;;;12.70;66.30;;;;;;5095537;28;20063;-52
2021/03/31 00:37:28;;;;;;;15.43;5.68;;;12.70;66.30;;;;;;5095579;28;20036;-53
2021/03/31 00:39:53;;;;;;;15.68;5.65;;;12.70;66.30;;;;;;5095627;28;20020;-53
2021/03/31 00:42:19;;;;;;;11.05;5.15;;;12.70;66.30;;;;;;5095061;28;20554;-53
2021/03/31 00:44:44;;;;;;;12.20;5.57;;;12.70;66.40;;;;;;5095425;28;20042;-53
2021/03/31 00:47:10;;;;;;;14.00;5.72;;;12.70;66.40;;;;;;5095620;28;20443;-53
2021/03/31 00:49:36;;;;;;;11.23;5.22;;;12.70;66.40;;;;;;5095797;28;20427;-53
2021/03/31 00:52:02;;;;;;;15.88;5.50;;;12.60;66.40;;;;;;5094913;28;20114;-53
2021/03/31 00:54:28;;;;;;;13.32;4.88;;;12.60;66.40;;;;;;5094905;28;20521;-52
2021/03/31 00:56:54;;;;;;;11.43;5.53;;;12.70;66.60;;;;;;5095224;28;20123;-53
2021/03/31 00:59:20;;;;;;;16.08;6.25;;;12.60;66.60;;;;;;5095370;28;20020;-53
2021/03/31 01:01:46;;;;;;;15.93;6.00;;;12.60;66.60;;;;;;5094769;28;20036;-52
2021/03/31 01:04:11;;;;;;;13.82;5.68;;;12.60;66.60;;;;;;5094924;28;20027;-53
2021/03/31 01:06:37;;;;;;;14.30;6.13;;;12.60;66.60;;;;;;5094985;28;20028;-52
2021/03/31 01:09:04;;;;;;;18.40;5.85;;;12.60;66.60;;;;;;5094739;28;20253;-53
2021/03/31 01:11:52;;;;;;;11.23;5.57;;;12.60;66.60;;;;;;5094496;28;20024;-52
2021/03/31 01:14:25;;;;;;;13.93;5.75;;;12.60;66.60;;;;;;5095118;28;20032;-53
2021/03/31 01:16:59;;;;;;;13.40;5.53;;;12.60;66.70;;;;;;5094811;28;20020;-53
2021/03/31 01:19:43;;;;;;;12.45;5.13;;;12.60;66.70;;;;;;5094356;28;20039;-53
2021/03/31 01:22:42;;;;;;;14.95;5.70;;;12.50;66.70;;;;;;5094451;28;20059;-53
2021/03/31 01:25:29;;;;;;;9.10;5.47;;;12.50;66.60;;;;;;5094584;28;20490;-53
2021/03/31 01:28:19;;;;;;;15.73;5.25;;;12.60;66.70;;;;;;5094724;28;20044;-53
2021/03/31 01:31:05;;;;;;;16.67;5.95;;;12.50;66.70;;;;;;5094721;28;20058;-53
2021/03/31 01:33:40;;;;;;;15.82;5.47;;;12.50;66.70;;;;;;5094448;28;20032;-53
2021/03/31 01:36:07;;;;;;;11.43;5.03;;;12.50;66.70;;;;;;5094170;28;20032;-53
2021/03/31 01:38:34;;;;;;;11.27;5.15;;;12.50;66.70;;;;;;5094613;28;20039;-53
2021/03/31 01:41:02;;;;;;;17.55;5.70;;;12.50;66.70;;;;;;5094394;28;20031;-53
2021/03/31 01:43:30;;;;;;;13.38;5.03;;;12.40;66.70;;;;;;5094185;28;20043;-53
2021/03/31 01:45:56;;;;;;;13.52;5.03;;;12.50;66.80;;;;;;5094079;28;20106;-53
2021/03/31 01:48:27;;;;;;;11.50;5.30;;;12.50;66.80;;;;;;5094111;28;20070;-53
2021/03/31 01:50:58;;;;;;;14.18;5.75;;;12.40;66.70;;;;;;5093904;28;20036;-53
2021/03/31 01:53:24;;;;;;;13.50;5.38;;;12.50;66.90;;;;;;5093824;28;20035;-53
2021/03/31 01:55:54;;;;;;;11.25;5.07;;;12.40;66.80;;;;;;5094068;28;20073;-53
2021/03/31 01:58:22;;;;;;;12.40;5.07;;;12.40;66.80;;;;;;5094138;28;20038;-53
2021/03/31 02:00:49;;;;;;;13.88;5.60;;;12.40;66.80;;;;;;5093875;28;20024;-53
2021/03/31 02:03:18;;;;;;;16.50;5.30;;;12.40;66.80;;;;;;5093781;28;20046;-53
2021/03/31 02:05:45;;;;;;;15.63;5.93;;;12.40;66.80;;;;;;5093976;28;20021;-53
2021/03/31 02:08:11;;;;;;;9.65;4.60;;;12.40;66.80;;;;;;5093959;28;20035;-53
2021/03/31 02:10:37;;;;;;;17.95;5.45;;;12.40;66.80;;;;;;5093754;28;20366;-52
2021/03/31 02:13:05;;;;;;;11.13;5.43;;;12.40;66.90;;;;;;5093624;28;20111;-53
2021/03/31 02:15:31;;;;;;;12.68;4.97;;;12.40;66.90;;;;;;5093420;28;20076;-52
2021/03/31 02:17:59;;;;;;;9.73;4.35;;;12.40;66.80;;;;;;5093814;28;20111;-53
2021/03/31 02:20:25;;;;;;;11.85;5.07;;;12.30;66.90;;;;;;5093809;28;20426;-53
2021/03/31 02:22:53;;;;;;;12.00;4.65;;;12.40;67.00;;;;;;5093455;28;20051;-53
2021/03/31 02:25:19;;;;;;;10.25;5.18;;;12.40;67.00;;;;;;5093577;28;20020;-52
2021/03/31 02:27:46;;;;;;;8.60;4.93;;;12.40;66.90;;;;;;5093149;28;20111;-53
2021/03/31 02:30:14;;;;;;;14.60;5.50;;;12.30;66.90;;;;;;5093180;28;20024;-53
2021/03/31 02:32:43;;;;;;;10.48;4.80;;;12.30;66.80;;;;;;5093534;28;20158;-53
2021/03/31 02:35:10;;;;;;;8.48;4.53;;;12.30;66.80;;;;;;5093235;28;20020;-52
2021/03/31 02:37:39;;;;;;;10.93;4.50;;;12.30;66.70;;;;;;5093547;28;20421;-52
2021/03/31 02:40:07;;;;;;;11.65;5.30;;;12.30;66.80;;;;;;5093381;28;20024;-53
2021/03/31 02:42:33;;;;;;;14.95;5.85;;;12.30;66.80;;;;;;5092827;28;20343;-53
2021/03/31 02:45:01;;;;;;;11.93;4.57;;;12.30;66.70;;;;;;5089175;28;20031;-52
2021/03/31 02:47:31;;;;;;;11.68;5.05;;;12.30;67.50;;;;;;5072110;28;20071;-52
2021/03/31 02:50:03;;;;;;;14.02;5.55;;;12.30;66.80;;;;;;5073594;28;20024;-52
2021/03/31 02:52:30;;;;;;;12.88;5.15;;;12.30;66.90;;;;;;5083211;28;20047;-53
2021/03/31 02:54:56;;;;;;;11.85;5.43;;;12.20;66.80;;;;;;5093023;28;20051;-52
2021/03/31 02:57:23;;;;;;;12.13;5.18;;;12.20;66.70;;;;;;5093462;28;20354;-53
2021/03/31 02:59:50;;;;;;;13.40;5.43;;;12.20;66.80;;;;;;5093034;28;20024;-52
2021/03/31 03:02:20;;;;;;;14.02;5.55;;;12.20;66.80;;;;;;5092880;28;20034;-53
2021/03/31 03:04:47;;;;;;;14.90;4.90;;;12.20;66.80;;;;;;5093190;28;20028;-53
2021/03/31 03:07:14;;;;;;;14.55;5.95;;;12.20;66.80;;;;;;5093061;28;20055;-53
2021/03/31 03:09:40;;;;;;;12.80;5.03;;;12.20;66.90;;;;;;5093624;28;20023;-53
2021/03/31 03:12:08;;;;;;;15.40;5.35;;;12.20;66.80;;;;;;5089490;28;20024;-53
2021/03/31 03:14:35;;;;;;;15.90;5.72;;;12.20;66.80;;;;;;5093321;28;20024;-53
2021/03/31 03:17:00;;;;;;;11.77;4.93;;;12.20;66.80;;;;;;5093059;28;20036;-53
2021/03/31 03:19:26;;;;;;;9.93;4.80;;;12.20;66.80;;;;;;5092953;28;20158;-53
2021/03/31 03:21:53;;;;;;;12.63;5.00;;;12.20;66.80;;;;;;5092476;28;20028;-53
2021/03/31 03:24:19;;;;;;;12.18;5.30;;;12.20;66.80;;;;;;5092852;28;20366;-52
2021/03/31 03:26:45;;;;;;;15.75;5.10;;;12.20;66.80;;;;;;5092700;28;20109;-53
2021/03/31 03:29:11;;;;;;;14.75;5.07;;;12.10;66.90;;;;;;5093094;28;20063;-53
2021/03/31 03:31:38;;;;;;;17.73;5.20;;;12.10;66.80;;;;;;5092543;28;20435;-53
2021/03/31 03:34:08;;;;;;;12.23;4.63;;;12.10;66.80;;;;;;5092824;28;20107;-53
2021/03/31 03:36:35;;;;;;;11.45;4.75;;;12.10;66.80;;;;;;5092816;28;20027;-53
2021/03/31 03:39:04;;;;;;;10.32;5.28;;;12.10;66.80;;;;;;5092624;28;20036;-53
2021/03/31 03:41:30;;;;;;;10.52;4.55;;;12.10;66.70;;;;;;5095138;28;20412;-53
2021/03/31 03:43:56;;;;;;;11.88;4.82;;;12.10;66.70;;;;;;5096777;28;20110;-53
2021/03/31 03:46:22;;;;;;;12.27;4.95;;;12.00;66.70;;;;;;5096607;28;20116;-53
2021/03/31 03:48:48;;;;;;;11.65;4.53;;;12.10;66.70;;;;;;5096747;28;20032;-53
2021/03/31 03:51:14;;;;;;;13.82;4.88;;;12.10;66.70;;;;;;5095994;28;20455;-53
2021/03/31 03:53:40;;;;;;;12.45;5.53;;;12.10;66.70;;;;;;5095955;28;20027;-53
2021/03/31 03:56:11;;;;;;;13.07;5.13;;;12.00;66.70;;;;;;5096626;28;20035;-53
2021/03/31 03:58:37;;;;;;;12.35;5.63;;;12.00;66.70;;;;;;5096658;28;20358;-53
2021/03/31 04:01:03;;;;;;;12.13;4.78;;;12.00;66.70;;;;;;5096473;28;20490;-53
2021/03/31 04:03:28;;;;;;;19.25;5.20;;;12.00;66.70;;;;;;5095810;28;20036;-52
2021/03/31 04:05:54;;;;;;;10.85;4.65;;;12.00;66.70;;;;;;5096228;28;20031;-53
2021/03/31 04:08:20;;;;;;;11.57;4.88;;;12.00;66.70;;;;;;5095873;28;20035;-53
2021/03/31 04:10:51;;;;;;;10.90;5.22;;;12.00;66.70;;;;;;5096412;28;20021;-52
2021/03/31 04:13:18;;;;;;;9.63;5.00;;;12.00;66.70;;;;;;5095630;28;20354;-53
2021/03/31 04:15:46;;;;;;;13.63;4.78;;;12.00;66.70;;;;;;5096314;28;20097;-53
2021/03/31 04:18:14;;;;;;;20.05;5.25;;;11.90;66.70;;;;;;5095859;28;20031;-53
2021/03/31 04:20:41;;;;;;;14.32;5.10;;;11.90;66.70;;;;;;5095672;28;20031;-53
2021/03/31 04:23:07;;;;;;;15.27;4.95;;;11.90;66.70;;;;;;5095708;28;20040;-52
2021/03/31 04:25:33;;;;;;;13.80;4.90;;;11.90;66.70;;;;;;5096110;28;20031;-53
2021/03/31 04:28:03;;;;;;;13.57;4.93;;;11.90;66.80;;;;;;5096164;28;20543;-53
2021/03/31 04:30:29;;;;;;;8.15;3.67;;;11.90;67.50;;;;;;5095853;28;20016;-53
2021/03/31 04:32:56;;;;;;;12.48;5.05;;;11.90;66.70;;;;;;5095432;28;20064;-52
2021/03/31 04:35:22;;;;;;;10.57;4.43;;;11.90;66.80;;;;;;5095412;28;20036;-53
2021/03/31 04:37:49;;;;;;;9.95;5.45;;;11.90;66.80;;;;;;5095493;28;20122;-52
2021/03/31 04:40:16;;;;;;;11.55;5.25;;;11.90;66.70;;;;;;5095654;28;20111;-52
2021/03/31 04:42:42;;;;;;;13.65;5.13;;;11.80;66.70;;;;;;5095340;28;20032;-53
2021/03/31 04:45:11;;;;;;;14.38;5.55;;;11.80;66.70;;;;;;5095547;28;20020;-53
2021/03/31 04:47:37;;;;;;;10.45;4.13;;;11.80;66.70;;;;;;5095233;28;20032;-53
2021/03/31 04:50:09;;;;;;;10.52;4.63;;;11.90;66.80;;;;;;5095137;28;20110;-53
2021/03/31 04:52:34;;;;;;;12.95;5.43;;;11.80;66.80;;;;;;5094203;28;20347;-53
2021/03/31 04:55:00;;;;;;;12.45;4.63;;;11.80;66.80;;;;;;5095546;28;20100;-53
2021/03/31 04:57:25;;;;;;;10.40;4.88;;;11.80;66.80;;;;;;5095591;28;20032;-53
2021/03/31 04:59:51;;;;;;;15.60;5.40;;;11.80;66.80;;;;;;5095153;28;20016;-53
2021/03/31 05:02:17;;;;;;;11.43;4.88;;;11.80;66.80;;;;;;5094429;28;20061;-53
2021/03/31 05:04:42;;;;;;;12.52;4.95;;;11.80;66.80;;;;;;5095172;28;20035;-53
2021/03/31 05:07:08;;;;;;;12.30;6.15;;;11.80;66.80;;;;;;5095158;28;20035;-53
2021/03/31 05:09:33;;;;;;;13.07;5.05;;;11.70;66.70;;;;;;5094897;28;20455;-52
2021/03/31 05:12:00;;;;;;;20.50;5.75;;;11.70;66.80;;;;;;5094538;28;20118;-53
2021/03/31 05:14:26;;;;;;;12.00;5.03;;;11.70;66.80;;;;;;5095051;28;20405;-53
2021/03/31 05:16:52;;;;;;;16.55;6.47;;;11.70;67.50;;;;;;5094130;28;20057;-52
2021/03/31 05:19:17;;;;;;;11.65;6.05;;;11.70;66.80;;;;;;5094585;28;20115;-53
2021/03/31 05:21:43;;;;;;;11.07;4.90;;;11.70;66.80;;;;;;5094410;28;20024;-53
2021/03/31 05:24:09;;;;;;;15.27;5.22;;;11.70;66.90;;;;;;5094698;28;20390;-53
2021/03/31 05:26:35;;;;;;;18.83;5.57;;;11.70;67.00;;;;;;5094463;28;20382;-52
2021/03/31 05:29:01;;;;;;;9.30;4.40;;;11.70;67.00;;;;;;5094508;28;20051;-53
2021/03/31 05:31:26;;;;;;;17.85;5.22;;;11.70;66.90;;;;;;5094182;28;20024;-53
2021/03/31 05:33:52;;;;;;;18.33;5.93;;;11.70;67.00;;;;;;5094381;28;20032;-53
2021/03/31 05:36:18;;;;;;;16.73;6.00;;;11.70;67.00;;;;;;5094345;28;20028;-53
2021/03/31 05:38:43;;;;;;;11.32;5.43;;;11.60;66.90;;;;;;5094511;28;20032;-53
2021/03/31 05:41:10;;;;;;;14.93;5.00;;;11.70;67.10;;;;;;5094360;28;20050;-53
2021/03/31 05:43:36;;;;;;;14.02;5.38;;;11.60;67.00;;;;;;5093963;28;20043;-53
2021/03/31 05:46:02;;;;;;;11.57;4.97;;;11.70;67.20;;;;;;5094101;28;20111;-53
2021/03/31 05:48:27;;;;;;;13.35;5.40;;;11.60;67.20;;;;;;5094295;28;20056;-53
2021/03/31 05:50:53;;;;;;;11.32;5.10;;;11.60;67.30;;;;;;5094147;28;20028;-53
2021/03/31 05:53:19;;;;;;;14.05;5.72;;;11.60;67.40;;;;;;5093730;28;20028;-53
2021/03/31 05:55:45;;;;;;;8.75;4.25;;;11.60;67.40;;;;;;5094287;28;20085;-53
2021/03/31 05:58:11;;;;;;;9.75;4.60;;;11.60;67.50;;;;;;5094070;28;20378;-53
2021/03/31 06:00:37;;;;;;;16.20;4.70;;;11.70;67.70;;;;;;5093828;28;20027;-52
2021/03/31 06:03:04;;;;;;;15.77;5.35;;;11.70;67.70;;;;;;5092653;28;20054;-52
2021/03/31 06:05:32;;;;;;;9.25;4.00;;;11.70;67.70;;;;;;5094328;28;20047;-53
2021/03/31 06:07:58;;;;;;;12.65;4.22;;;11.70;67.70;;;;;;5093797;28;20032;-53
2021/03/31 06:10:26;;;;;;;10.90;5.10;;;11.70;68.40;;;;;;5094063;28;20020;-53
2021/03/31 06:12:53;;;;;;;16.77;5.28;;;11.80;68.10;;;;;;5093438;28;20028;-53
2021/03/31 06:15:32;;;;;;;8.25;4.60;;;11.90;67.50;;;;;;5093618;28;20020;-53
2021/03/31 06:18:20;;;;;;;13.18;4.82;;;12.00;67.20;;;;;;5073309;28;20032;-52
2021/03/31 06:20:59;;;;;;;14.95;5.93;;;12.10;66.90;;;;;;5073068;28;20084;-53
2021/03/31 06:26:33;;;;;;;11.98;5.30;;;12.20;66.10;;;;;;5073304;28;20048;-53
2021/03/31 06:28:59;;;;;;;12.35;5.53;;;12.20;65.70;;;;;;5073215;28;20527;-53
2021/03/31 06:31:34;;;;;;;14.05;6.05;;;12.30;65.30;;;;;;5073281;28;20100;-53
2021/03/31 06:34:09;;;;;;;12.18;5.18;;;12.40;64.90;;;;;;5072898;28;20447;-53
2021/03/31 06:36:37;;;;;;;16.70;5.65;;;12.40;64.60;;;;;;5073522;28;20051;-53
2021/03/31 06:39:16;;;;;;;11.48;4.53;;;12.50;64.40;;;;;;5073342;28;20035;-53
2021/03/31 06:41:50;;;;;;;18.25;5.90;;;12.50;64.20;;;;;;5072945;28;20024;-53
2021/03/31 06:44:28;;;;;;;16.27;6.10;;;12.50;64.10;;;;;;5073045;28;20082;-53
2021/03/31 06:47:12;;;;;;;12.63;5.25;;;12.60;64.10;;;;;;5073540;28;20021;-53
2021/03/31 06:49:38;;;;;;;11.60;4.75;;;12.70;64.00;;;;;;5071813;28;20428;-53
2021/03/31 06:52:08;;;;;;;15.68;5.65;;;12.80;63.90;;;;;;5079882;28;20055;-53
2021/03/31 06:54:43;;;;;;;17.15;6.25;;;12.80;63.90;;;;;;5093683;28;20024;-53
2021/03/31 06:57:09;;;;;;;19.45;5.53;;;12.80;63.80;;;;;;5092969;28;20388;-53
2021/03/31 06:59:35;;;;;;;12.80;5.03;;;12.90;63.80;;;;;;5093327;28;20034;-53
2021/03/31 07:02:02;;;;;;;20.85;6.20;;;13.00;63.90;;;;;;5092822;28;20360;-53
2021/03/31 07:04:30;;;;;;;18.77;6.20;;;13.00;63.90;;;;;;5093048;28;20356;-53
2021/03/31 07:07:08;;;;;;;13.82;5.93;;;13.10;63.90;;;;;;5093202;28;20028;-53
2021/03/31 07:09:35;;;;;;;11.98;4.32;;;13.20;64.00;;;;;;5092845;28;20029;-53
2021/03/31 07:12:00;;;;;;;14.85;6.57;;;13.20;63.80;;;;;;5093049;28;20035;-53
2021/03/31 07:14:28;;;;;;;13.90;5.50;;;13.30;63.90;;;;;;5094111;28;20020;-53
2021/03/31 07:16:55;;;;;;;18.90;6.07;;;13.30;63.80;;;;;;5096960;28;20412;-54
2021/03/31 07:19:21;;;;;;;21.50;6.40;;;13.40;63.70;;;;;;5097136;28;20024;-53
2021/03/31 07:21:49;;;;;;;14.02;6.22;;;13.50;63.70;;;;;;5096671;28;20035;-53
2021/03/31 07:24:15;;;;;;;15.55;7.28;;;13.60;63.70;;;;;;5096756;28;20024;-53
2021/03/31 07:26:45;;;;;;;15.20;5.78;;;13.60;63.60;;;;;;5097344;28;20442;-53
2021/03/31 07:29:12;;;;;;;13.25;6.45;;;13.70;63.50;;;;;;5096989;28;20032;-52
2021/03/31 07:31:42;;;;;;;13.65;6.22;;;13.70;63.30;;;;;;5096585;28;20063;-53
2021/03/31 07:34:15;;;;;;;19.25;6.88;;;13.80;63.20;;;;;;5097243;28;20039;-53
2021/03/31 07:36:44;;;;;;;14.50;6.75;;;13.90;63.00;;;;;;5096645;28;20454;-53
2021/03/31 07:39:11;;;;;;;14.65;6.97;;;14.00;62.90;;;;;;5096525;28;20459;-53
2021/03/31 07:41:38;;;;;;;18.52;6.90;;;14.00;62.70;;;;;;5096503;28;20490;-53
2021/03/31 07:44:06;;;;;;;19.58;6.88;;;14.10;62.50;;;;;;5096747;28;20097;-53
2021/03/31 07:46:37;;;;;;;15.65;6.38;;;14.10;62.20;;;;;;5096638;28;20032;-53
2021/03/31 07:49:04;;;;;;;10.43;5.30;;;14.20;62.80;;;;;;5092939;28;20463;-53
2021/03/31 07:51:31;;;;;;;12.75;6.30;;;14.20;61.70;;;;;;5086889;28;20153;-53
2021/03/31 07:53:59;;;;;;;18.33;8.52;;;14.30;61.60;;;;;;5080954;28;20058;-53
2021/03/31 07:56:31;;;;;;;26.52;9.23;;;14.40;61.40;;;;;;5086792;28;20035;-53
2021/03/31 07:59:03;;;;;;;19.45;7.15;;;14.40;61.20;;;;;;5085222;28;20024;-53
2021/03/31 08:01:37;;;;;;;16.58;6.55;;;14.50;61.00;;;;;;5084201;28;20024;-53
2021/03/31 08:04:04;;;;;;;21.15;9.13;;;14.50;60.70;;;;;;5084318;28;20085;-53
2021/03/31 08:06:31;;;;;;;20.38;8.23;;;14.60;60.60;;;;;;5089395;28;20021;-53
2021/03/31 08:09:07;;;;;;;15.27;7.85;;;14.70;60.40;;;;;;5096043;28;20111;-53
2021/03/31 08:11:39;;;;;;;25.10;8.38;;;14.70;60.10;;;;;;5096088;28;20431;-53
2021/03/31 08:14:06;;;;;;;17.58;7.38;;;14.80;59.90;;;;;;5095765;28;20382;-53
2021/03/31 08:16:38;;;;;;;21.23;8.82;;;14.80;59.70;;;;;;5096326;28;20044;-53
2021/03/31 08:19:16;;;;;;;19.65;7.78;;;14.90;60.20;;;;;;5095205;28;20084;-53
2021/03/31 08:21:45;;;;;;;24.63;9.50;;;15.00;59.50;;;;;;5095781;28;20032;-53
2021/03/31 08:24:11;;;;;;;16.40;8.45;;;15.00;59.40;;;;;;5095891;28;20066;-53
2021/03/31 08:26:55;;;;;;;21.75;7.40;;;15.00;59.30;;;;;;5093279;28;20024;-53
2021/03/31 08:29:21;;;;;;;15.55;8.15;;;15.10;59.10;;;;;;5088171;28;20348;-53
2021/03/31 08:31:55;;;;;;;11.88;6.13;;;15.10;59.10;;;;;;5095417;28;20481;-53
2021/03/31 08:34:27;;;;;;;15.43;7.22;;;15.20;59.00;;;;;;5095234;28;20039;-53
2021/03/31 08:36:53;;;;;;;26.23;9.65;;;15.20;58.90;;;;;;5094836;28;20031;-53
2021/03/31 08:39:19;;;;;;;27.05;9.82;;;15.20;58.80;;;;;;5095109;28;20028;-53
2021/03/31 08:41:55;;;;;;;22.05;7.28;;;15.30;58.90;;;;;;5094976;28;20036;-53
2021/03/31 08:44:28;;;;;;;21.67;8.18;;;15.40;58.90;;;;;;5094244;28;20534;-53
2021/03/31 08:46:56;;;;;;;15.20;5.60;;;15.40;58.80;;;;;;5095412;28;20452;-53
2021/03/31 08:49:27;;;;;;;24.23;8.50;;;15.40;58.80;;;;;;5095574;28;20097;-53
2021/03/31 08:51:58;;;;;;;24.23;10.23;;;15.50;58.70;;;;;;5094534;28;20592;-53
2021/03/31 08:54:39;;;;;;;24.02;8.30;;;15.50;58.60;;;;;;5095394;28;20032;-53
2021/03/31 08:57:13;;;;;;;28.30;9.20;;;15.50;58.70;;;;;;5095183;28;20035;-53
2021/03/31 08:59:44;;;;;;;42.90;11.32;;;15.60;58.90;;;;;;5095108;28;20124;-53
2021/03/31 09:02:11;;;;;;;24.25;11.32;;;15.60;59.00;;;;;;5094898;28;20048;-53
2021/03/31 09:04:37;;;;;;;26.60;7.72;;;15.60;58.80;;;;;;5094888;28;20028;-53
2021/03/31 09:07:05;;;;;;;35.78;12.20;;;15.70;59.50;;;;;;5094725;28;20039;-53
2021/03/31 09:09:36;;;;;;;16.33;6.55;;;15.70;58.80;;;;;;5095419;28;20040;-53
2021/03/31 09:12:04;;;;;;;18.98;5.10;;;15.80;58.90;;;;;;5092330;28;20024;-53
2021/03/31 09:14:30;;;;;;;19.90;5.47;;;15.80;59.00;;;;;;5094733;28;20058;-53
2021/03/31 09:16:55;;;;;;;19.33;7.72;;;15.80;58.90;;;;;;5085251;28;20081;-53
2021/03/31 09:19:22;;;;;;;10.02;5.15;;;15.90;59.00;;;;;;5083701;28;20386;-53
2021/03/31 09:21:48;;;;;;;16.38;6.07;;;15.90;58.90;;;;;;5083524;28;20109;-53
2021/03/31 09:24:17;;;;;;;7.30;3.60;;;15.90;59.10;;;;;;5085183;28;20444;-53
2021/03/31 09:27:04;;;;;;;14.05;5.40;;;16.00;59.00;;;;;;5083874;28;20016;-53
2021/03/31 09:29:30;;;;;;;18.70;8.13;;;16.00;59.00;;;;;;5084533;28;20028;-53
2021/03/31 09:31:59;;;;;;;11.40;4.57;;;16.10;59.20;;;;;;5083396;28;20111;-53
2021/03/31 09:34:25;;;;;;;14.00;6.20;;;16.10;59.20;;;;;;5083024;28;20379;-53
2021/03/31 09:36:58;;;;;;;12.18;3.72;;;16.10;59.20;;;;;;5084564;28;20020;-53
2021/03/31 09:39:43;;;;;;;18.65;9.25;;;16.10;59.10;;;;;;5084759;28;20719;-53
2021/03/31 09:42:24;;;;;;;13.93;6.97;;;16.10;59.20;;;;;;5082540;28;20115;-53
2021/03/31 09:44:52;;;;;;;19.80;7.30;;;16.10;59.10;;;;;;5082679;28;20052;-53
2021/03/31 09:47:22;;;;;;;14.02;5.40;;;16.10;59.30;;;;;;5091155;28;20024;-53
2021/03/31 09:49:49;;;;;;;19.42;8.88;;;16.10;59.40;;;;;;5094287;28;20024;-53
2021/03/31 09:52:16;;;;;;;15.82;7.72;;;16.10;59.30;;;;;;5093060;28;20101;-53
2021/03/31 09:54:45;;;;;;;19.25;7.95;;;16.10;59.50;;;;;;5094071;28;20024;-53
2021/03/31 09:57:12;;;;;;;21.45;6.97;;;16.10;59.60;;;;;;5093403;28;20477;-53
2021/03/31 09:59:39;;;;;;;21.25;8.73;;;16.10;59.60;;;;;;5082799;28;20070;-53
2021/03/31 10:02:06;;;;;;;13.27;2.78;;;16.10;59.60;;;;;;5078465;28;20123;-53
2021/03/31 10:04:36;;;;;;;18.92;8.00;;;16.10;59.50;;;;;;5073458;28;20355;-53
2021/03/31 10:07:16;;;;;;;23.17;7.57;;;16.10;59.30;;;;;;5073648;28;20036;-53
2021/03/31 10:09:44;;;;;;;17.65;6.78;;;16.10;59.50;;;;;;5073622;28;20032;-53
2021/03/31 10:12:11;;;;;;;10.65;4.75;;;16.10;60.00;;;;;;5073453;28;20323;-53
2021/03/31 10:14:49;;;;;;;12.05;6.25;;;16.10;59.80;;;;;;5073522;28;20025;-53
2021/03/31 10:17:17;;;;;;;7.00;3.20;;;16.10;59.90;;;;;;5073135;28;20047;-53
2021/03/31 10:19:43;;;;;;;20.58;7.15;;;16.00;60.00;;;;;;5073651;28;20020;-52
2021/03/31 10:22:09;;;;;;;20.83;8.13;;;16.00;60.00;;;;;;5073145;28;20044;-53
2021/03/31 10:24:37;;;;;;;14.95;6.53;;;16.00;60.10;;;;;;5073332;28;20027;-53
2021/03/31 10:27:03;;;;;;;11.93;5.70;;;16.00;60.10;;;;;;5073153;28;20029;-53
2021/03/31 10:29:29;;;;;;;12.80;4.05;;;16.00;60.30;;;;;;5076083;28;20169;-53
2021/03/31 10:31:57;;;;;;;18.80;6.82;;;16.00;60.40;;;;;;5086494;28;20031;-53
2021/03/31 10:34:23;;;;;;;16.27;8.02;;;16.00;60.20;;;;;;5093339;28;20039;-53
2021/03/31 10:37:01;;;;;;;23.85;8.20;;;16.00;60.20;;;;;;5093590;28;20032;-52
2021/03/31 10:39:53;;;;;;;32.45;9.27;;;15.90;60.30;;;;;;5093850;28;20435;-53
2021/03/31 10:53:43;;;;;;;16.85;7.07;;;15.80;61.10;;;;;;5092516;28;20028;-53
2021/03/31 10:56:09;;;;;;;25.38;7.18;;;15.90;61.30;;;;;;5093306;28;20050;-53
2021/03/31 10:58:34;;;;;;;23.20;9.98;;;15.80;61.40;;;;;;5084043;28;20431;-53
2021/03/31 11:01:00;;;;;;;23.15;7.82;;;15.80;62.30;;;;;;5070938;28;20025;-53
2021/03/31 11:03:26;;;;;;;24.45;9.00;;;15.80;61.40;;;;;;5071925;28;20036;-53
2021/03/31 11:05:54;;;;;;;26.30;7.68;;;15.80;61.50;;;;;;5073078;28;20092;-53
2021/03/31 11:08:23;;;;;;;16.33;5.43;;;15.80;61.60;;;;;;5073124;28;20032;-53
2021/03/31 11:10:49;;;;;;;24.30;9.20;;;15.80;61.70;;;;;;5072785;28;20023;-53
2021/03/31 11:13:16;;;;;;;17.38;6.68;;;15.80;61.60;;;;;;5072443;28;20044;-53
2021/03/31 11:15:42;;;;;;;16.88;6.63;;;15.70;61.60;;;;;;5072799;28;20024;-54
2021/03/31 11:18:18;;;;;;;10.85;4.63;;;15.70;61.60;;;;;;5072721;28;20036;-53
2021/03/31 11:26:12;;;;;;;18.88;6.82;;;15.60;61.50;;;;;;5073147;28;20036;-53
2021/03/31 11:28:38;;;;;;;26.85;6.93;;;15.60;61.60;;;;;;5072961;28;20033;-53
2021/03/31 11:31:05;;;;;;;19.88;6.68;;;15.60;61.70;;;;;;5072890;28;20029;-53
2021/03/31 11:33:31;;;;;;;18.65;6.28;;;15.60;61.70;;;;;;5072498;28;20028;-53
2021/03/31 11:35:57;;;;;;;21.98;6.85;;;15.60;61.70;;;;;;5072769;28;20032;-53
2021/03/31 11:38:23;;;;;;;19.27;6.93;;;15.60;61.80;;;;;;5072187;28;20496;-53
2021/03/31 11:40:50;;;;;;;23.48;7.32;;;15.60;61.80;;;;;;5072592;28;20024;-53
2021/03/31 11:43:17;;;;;;;26.05;6.53;;;15.60;61.80;;;;;;5078460;28;20036;-53
2021/03/31 11:45:43;;;;;;;25.65;7.25;;;15.60;61.90;;;;;;5073980;28;20439;-53
2021/03/31 11:48:09;;;;;;;24.40;6.05;;;15.60;61.90;;;;;;5072616;28;20127;-53
2021/03/31 11:50:35;;;;;;;16.40;6.00;;;15.50;61.90;;;;;;5072440;28;20112;-53
2021/03/31 11:53:01;;;;;;;26.45;8.77;;;15.50;61.90;;;;;;5082601;28;20111;-53
2021/03/31 11:55:27;;;;;;;22.52;7.53;;;15.60;62.00;;;;;;5080227;28;20024;-53
2021/03/31 11:57:53;;;;;;;15.18;5.72;;;15.60;62.10;;;;;;5077861;28;20029;-53
2021/03/31 12:00:21;;;;;;;22.38;6.13;;;15.60;62.00;;;;;;5078990;28;20027;-53
2021/03/31 12:02:47;;;;;;;17.88;6.70;;;15.60;62.10;;;;;;5077645;28;20044;-53
2021/03/31 12:05:13;;;;;;;18.45;7.22;;;15.60;62.20;;;;;;5076199;28;20130;-53
2021/03/31 12:07:39;;;;;;;23.95;7.10;;;15.60;62.10;;;;;;5075683;28;20028;-53
2021/03/31 12:10:08;;;;;;;22.02;7.07;;;15.60;62.20;;;;;;5076290;28;20396;-53
2021/03/31 12:12:35;;;;;;;26.17;9.05;;;15.60;62.20;;;;;;5075712;28;20032;-53
2021/03/31 12:15:02;;;;;;;23.35;7.97;;;15.60;62.20;;;;;;5075787;28;20029;-53
2021/03/31 12:17:27;;;;;;;13.38;5.88;;;15.60;62.30;;;;;;5075737;28;20029;-53
2021/03/31 12:19:53;;;;;;;18.55;6.68;;;15.60;62.40;;;;;;5075697;28;20027;-53
2021/03/31 12:22:19;;;;;;;19.02;6.53;;;15.60;62.40;;;;;;5075739;28;20081;-53
2021/03/31 12:24:45;;;;;;;20.10;6.80;;;15.60;62.50;;;;;;5075590;28;20474;-53
2021/03/31 12:27:14;;;;;;;21.30;7.55;;;15.60;62.50;;;;;;5075621;28;20506;-53
2021/03/31 12:29:43;;;;;;;23.73;8.18;;;15.60;62.50;;;;;;5075551;28;20348;-53
2021/03/31 12:32:09;;;;;;;18.20;6.60;;;15.60;62.60;;;;;;5075341;28;20024;-53
2021/03/31 12:34:35;;;;;;;18.63;7.40;;;15.60;62.70;;;;;;5075226;28;20048;-53
2021/03/31 12:37:00;;;;;;;14.77;6.80;;;15.60;62.70;;;;;;5075733;28;20479;-53
2021/03/31 12:39:26;;;;;;;12.27;5.10;;;15.60;62.70;;;;;;5075346;28;20444;-53
2021/03/31 12:41:51;;;;;;;20.90;6.53;;;15.60;62.70;;;;;;5075117;28;20066;-53
2021/03/31 12:44:17;;;;;;;11.32;3.83;;;15.60;62.80;;;;;;5075236;28;20466;-53
2021/03/31 12:46:43;;;;;;;21.95;7.57;;;15.60;62.70;;;;;;5075307;28;20092;-52
2021/03/31 12:49:08;;;;;;;21.13;7.03;;;15.70;59.30;;;;;;5074983;28;20367;-52
2021/03/31 12:51:42;;;;;;;16.85;6.72;;;15.90;57.30;;;;;;5077808;28;20034;-52
2021/03/31 12:56:43;;;;;;;14.00;5.82;;;16.20;56.60;;;;;;5095547;28;20024;-52
2021/03/31 12:59:09;;;;;;;21.98;7.10;;;16.20;55.50;;;;;;5095349;28;20032;-52
2021/03/31 13:01:36;;;;;;;9.10;4.13;;;16.40;54.70;;;;;;5093622;28;20358;-52
2021/03/31 13:04:02;;;;;;;25.50;7.85;;;16.50;54.90;;;;;;5094370;28;20470;-53
2021/03/31 13:06:32;;;;;;;19.00;7.28;;;16.50;53.60;;;;;;5095490;28;20062;-54